Time;durP1;ratioP1;P1;durP2;ratioP2;P2;SDS_P1;SDS_P2;PMS_P1;PMS_P2;Temp;Humidity;BMP_temperature;BMP_pressure;BME280_temperature;BME280_humidity;BME280_pressure;Samples;Min_cycle;Max_cycle;Signal;HPM_P1;HPM_P2
2023/07/06 00:01:48;;;;;;;16.35;8.18;;;;;;;;;;5091380;28;20298;-79
2023/07/06 00:04:15;;;;;;;13.48;7.47;;;;;;;;;;5092339;28;20443;-79
2023/07/06 00:06:41;;;;;;;14.55;8.23;;;;;;;;;;5092075;28;20496;-79
2023/07/06 00:09:07;;;;;;;17.08;8.52;;;;;;;;;;5075122;28;20044;-79
2023/07/06 00:11:34;;;;;;;17.42;9.15;;;;;;;;;;5092579;28;20392;-79
2023/07/06 00:14:00;;;;;;;15.27;8.40;;;;;;;;;;5075168;28;20051;-79
2023/07/06 00:16:26;;;;;;;15.43;8.00;;;;;;;;;;5074798;28;20093;-79
2023/07/06 00:18:53;;;;;;;16.27;8.52;;;;;;;;;;5091919;28;20093;-79
2023/07/06 00:21:19;;;;;;;16.70;8.75;;;;;;;;;;5073881;28;20086;-79
2023/07/06 00:23:47;;;;;;;15.18;8.35;;;;;;;;;;5091855;28;20036;-79
2023/07/06 00:26:16;;;;;;;16.50;8.88;;;;;;;;;;5091260;28;20055;-78
2023/07/06 00:28:42;;;;;;;14.30;8.55;;;;;;;;;;5074584;28;20531;-78
2023/07/06 00:31:20;;;;;;;18.75;8.70;;;;;;;;;;5091595;28;20096;-78
2023/07/06 00:33:46;;;;;;;15.85;8.45;;;;;;;;;;5091413;28;20088;-79
2023/07/06 00:36:12;;;;;;;16.33;9.45;;;;;;;;;;5091578;28;20055;-78
2023/07/06 00:38:38;;;;;;;14.65;8.68;;;;;;;;;;5090649;28;20396;-79
2023/07/06 00:41:05;;;;;;;20.23;9.10;;;;;;;;;;5091660;28;20423;-79
2023/07/06 00:43:49;;;;;;;20.05;8.52;;;;;;;;;;5091015;28;20365;-79
2023/07/06 00:46:16;;;;;;;16.52;8.60;;;;;;;;;;5092825;28;20040;-79
2023/07/06 00:48:44;;;;;;;14.52;8.65;;;;;;;;;;5090937;28;20055;-79
2023/07/06 00:51:16;;;;;;;16.58;8.13;;;;;;;;;;5092319;28;20558;-78
2023/07/06 00:53:44;;;;;;;16.77;7.70;;;;;;;;;;5090782;28;20048;-79
2023/07/06 00:56:13;;;;;;;17.75;8.20;;;;;;;;;;5091253;28;20060;-78
2023/07/06 00:58:42;;;;;;;17.20;8.55;;;;;;;;;;5090884;28;20044;-78
2023/07/06 01:01:10;;;;;;;13.07;7.18;;;;;;;;;;5090763;28;20067;-78
2023/07/06 01:03:44;;;;;;;18.30;9.15;;;;;;;;;;5090627;28;20547;-79
2023/07/06 01:06:12;;;;;;;16.58;7.93;;;;;;;;;;5090867;28;20042;-79
2023/07/06 01:08:38;;;;;;;13.75;8.55;;;;;;;;;;5090698;28;20119;-78
2023/07/06 01:11:04;;;;;;;14.43;8.00;;;;;;;;;;5074366;28;20488;-78
2023/07/06 01:13:32;;;;;;;14.40;7.70;;;;;;;;;;5090807;28;20044;-78
2023/07/06 01:16:12;;;;;;;15.40;7.82;;;;;;;;;;5090685;28;20048;-79
2023/07/06 01:18:38;;;;;;;15.85;8.15;;;;;;;;;;5090224;28;20048;-78
2023/07/06 01:21:09;;;;;;;15.65;8.20;;;;;;;;;;5090862;28;20075;-79
2023/07/06 01:23:59;;;;;;;14.75;7.13;;;;;;;;;;5090478;28;20054;-79
2023/07/06 01:26:34;;;;;;;16.60;6.97;;;;;;;;;;5082364;28;20079;-84
2023/07/06 01:29:06;;;;;;;11.05;6.68;;;;;;;;;;5092481;28;20493;-78
2023/07/06 01:31:42;;;;;;;11.55;7.32;;;;;;;;;;5074386;28;20060;-83
2023/07/06 01:34:27;;;;;;;14.77;7.00;;;;;;;;;;5091024;28;20044;-82
2023/07/06 01:36:59;;;;;;;15.50;7.53;;;;;;;;;;5091001;28;20404;-79
2023/07/06 01:39:27;;;;;;;12.20;6.93;;;;;;;;;;5094636;28;20076;-80
2023/07/06 01:42:14;;;;;;;13.70;6.38;;;;;;;;;;5087774;28;20043;-79
2023/07/06 01:44:42;;;;;;;12.73;6.50;;;;;;;;;;5090166;28;20052;-83
2023/07/06 01:47:09;;;;;;;9.65;6.20;;;;;;;;;;5091312;28;20040;-79
2023/07/06 01:49:35;;;;;;;13.23;6.55;;;;;;;;;;5094587;28;20119;-79
2023/07/06 01:52:04;;;;;;;13.80;6.00;;;;;;;;;;5095114;28;20050;-83
2023/07/06 01:54:35;;;;;;;9.25;6.20;;;;;;;;;;5095151;28;20051;-79
2023/07/06 01:57:05;;;;;;;12.25;6.38;;;;;;;;;;5095630;28;20100;-84
2023/07/06 01:59:33;;;;;;;11.07;6.18;;;;;;;;;;5091198;28;20142;-83
2023/07/06 02:02:01;;;;;;;13.02;6.05;;;;;;;;;;5093051;28;20058;-82
2023/07/06 02:04:28;;;;;;;9.40;6.25;;;;;;;;;;5099918;28;20036;-82
2023/07/06 02:06:55;;;;;;;16.05;6.88;;;;;;;;;;5094654;28;20121;-82
2023/07/06 02:09:22;;;;;;;9.80;6.13;;;;;;;;;;5094823;28;20146;-83
2023/07/06 02:11:51;;;;;;;11.55;5.85;;;;;;;;;;5095137;28;20094;-82
2023/07/06 02:14:18;;;;;;;11.77;6.20;;;;;;;;;;5078737;28;20055;-83
2023/07/06 02:16:44;;;;;;;13.43;7.22;;;;;;;;;;5078215;28;20404;-78
2023/07/06 02:19:10;;;;;;;10.15;6.80;;;;;;;;;;5094096;28;20182;-78
2023/07/06 02:21:36;;;;;;;12.05;6.30;;;;;;;;;;5093475;28;20036;-78
2023/07/06 02:24:02;;;;;;;12.00;6.40;;;;;;;;;;5077491;28;20044;-78
2023/07/06 02:26:28;;;;;;;10.77;6.10;;;;;;;;;;5093882;28;20070;-79
2023/07/06 02:28:55;;;;;;;12.45;6.78;;;;;;;;;;5077090;28;20044;-79
2023/07/06 02:31:21;;;;;;;13.27;6.75;;;;;;;;;;5093403;28;20075;-79
2023/07/06 02:33:47;;;;;;;12.05;6.78;;;;;;;;;;5076513;28;20089;-80
2023/07/06 02:36:13;;;;;;;13.18;6.85;;;;;;;;;;5093751;28;20072;-79
2023/07/06 02:38:39;;;;;;;14.82;7.43;;;;;;;;;;5092982;28;20044;-79
2023/07/06 02:41:05;;;;;;;15.88;7.88;;;;;;;;;;5093779;28;20126;-80
2023/07/06 02:43:32;;;;;;;16.35;7.20;;;;;;;;;;5093285;28;20047;-79
2023/07/06 02:45:58;;;;;;;16.10;8.05;;;;;;;;;;5093718;28;20216;-79
2023/07/06 02:48:25;;;;;;;14.93;7.68;;;;;;;;;;5093199;28;20060;-79
2023/07/06 02:50:51;;;;;;;19.13;7.95;;;;;;;;;;5075590;28;20089;-79
2023/07/06 02:53:18;;;;;;;13.23;7.90;;;;;;;;;;5093656;28;20055;-79
2023/07/06 02:55:51;;;;;;;15.40;8.50;;;;;;;;;;5094057;28;20472;-79
2023/07/06 02:58:18;;;;;;;17.88;7.82;;;;;;;;;;5093289;28;20109;-79
2023/07/06 03:00:49;;;;;;;17.80;8.43;;;;;;;;;;5093039;28;20051;-79
2023/07/06 03:03:15;;;;;;;18.25;9.35;;;;;;;;;;5093305;28;20056;-79
2023/07/06 03:05:46;;;;;;;15.10;8.77;;;;;;;;;;5076646;28;20484;-79
2023/07/06 03:08:12;;;;;;;21.42;9.00;;;;;;;;;;5092698;28;20055;-79
2023/07/06 03:10:38;;;;;;;27.73;10.20;;;;;;;;;;5076770;28;20531;-79
2023/07/06 03:13:06;;;;;;;27.02;10.52;;;;;;;;;;5078823;28;20051;-79
2023/07/06 03:15:32;;;;;;;25.35;12.38;;;;;;;;;;5093618;28;20392;-79
2023/07/06 03:17:58;;;;;;;23.90;11.38;;;;;;;;;;5075983;28;20050;-79
2023/07/06 03:20:24;;;;;;;21.70;11.48;;;;;;;;;;5092634;28;20459;-79
2023/07/06 03:22:51;;;;;;;22.77;10.98;;;;;;;;;;5092769;28;20467;-79
2023/07/06 03:25:18;;;;;;;24.45;11.48;;;;;;;;;;5092923;28;20032;-79
2023/07/06 03:27:46;;;;;;;27.95;12.15;;;;;;;;;;5092492;28;20044;-79
2023/07/06 03:30:13;;;;;;;22.77;11.93;;;;;;;;;;5092891;28;20491;-79
2023/07/06 03:32:39;;;;;;;24.40;12.02;;;;;;;;;;5092488;28;20044;-79
2023/07/06 03:35:06;;;;;;;24.67;11.73;;;;;;;;;;5091648;28;20055;-79
2023/07/06 03:37:32;;;;;;;24.75;11.90;;;;;;;;;;5092826;28;20048;-80
2023/07/06 03:39:58;;;;;;;24.67;11.68;;;;;;;;;;5074954;28;20064;-80
2023/07/06 03:42:24;;;;;;;21.67;11.65;;;;;;;;;;5092849;28;20058;-80
2023/07/06 03:44:55;;;;;;;20.48;11.23;;;;;;;;;;5092300;28;20122;-79
2023/07/06 03:47:23;;;;;;;22.25;11.30;;;;;;;;;;5092303;28;20093;-79
2023/07/06 03:49:49;;;;;;;23.35;11.60;;;;;;;;;;5091863;28;20036;-79
2023/07/06 03:52:17;;;;;;;21.35;10.93;;;;;;;;;;5075532;28;20043;-79
2023/07/06 03:54:44;;;;;;;20.15;10.70;;;;;;;;;;5092792;28;20052;-79
2023/07/06 03:57:11;;;;;;;22.40;11.55;;;;;;;;;;5092478;28;20060;-79
2023/07/06 03:59:38;;;;;;;24.13;10.80;;;;;;;;;;5075021;28;20123;-80
2023/07/06 04:02:05;;;;;;;20.48;10.23;;;;;;;;;;5072384;28;20400;-80
2023/07/06 04:04:33;;;;;;;24.35;11.18;;;;;;;;;;5075075;28;20044;-79
2023/07/06 04:07:00;;;;;;;22.45;10.93;;;;;;;;;;5090729;28;20039;-80
2023/07/06 04:09:26;;;;;;;20.77;10.48;;;;;;;;;;5066758;28;20043;-79
2023/07/06 04:11:53;;;;;;;21.42;10.00;;;;;;;;;;5090946;28;20047;-79
2023/07/06 04:14:26;;;;;;;22.65;10.15;;;;;;;;;;5092188;28;20115;-79
2023/07/06 04:16:54;;;;;;;24.50;10.55;;;;;;;;;;5091462;28;20036;-79
2023/07/06 04:19:20;;;;;;;19.95;9.80;;;;;;;;;;5091779;28;20105;-79
2023/07/06 04:21:46;;;;;;;17.83;9.80;;;;;;;;;;5091389;28;20036;-79
2023/07/06 04:24:12;;;;;;;29.98;10.95;;;;;;;;;;5068385;28;20128;-79
2023/07/06 04:26:40;;;;;;;17.42;9.73;;;;;;;;;;5091487;28;20036;-79
2023/07/06 04:29:07;;;;;;;21.33;10.48;;;;;;;;;;5091310;28;20051;-80
2023/07/06 04:31:34;;;;;;;19.48;9.00;;;;;;;;;;5091365;28;20062;-79
2023/07/06 04:34:00;;;;;;;16.15;8.60;;;;;;;;;;5090043;28;20044;-79
2023/07/06 04:36:26;;;;;;;16.45;8.35;;;;;;;;;;5089606;28;20591;-79
2023/07/06 04:38:52;;;;;;;16.33;7.55;;;;;;;;;;5066865;28;20040;-80
2023/07/06 04:41:19;;;;;;;13.50;7.05;;;;;;;;;;5091806;28;20078;-84
2023/07/06 04:43:45;;;;;;;17.52;6.90;;;;;;;;;;5090625;28;20093;-81
2023/07/06 04:46:12;;;;;;;16.92;6.50;;;;;;;;;;5091261;28;20040;-80
2023/07/06 04:48:40;;;;;;;11.93;5.93;;;;;;;;;;5091464;28;20056;-81
2023/07/06 04:51:08;;;;;;;13.05;6.22;;;;;;;;;;5074198;28;20039;-80
2023/07/06 04:53:37;;;;;;;16.60;6.35;;;;;;;;;;5091365;28;20051;-81
2023/07/06 04:56:04;;;;;;;11.00;5.97;;;;;;;;;;5060382;28;20056;-81
2023/07/06 04:58:31;;;;;;;12.80;6.00;;;;;;;;;;5091743;28;20580;-81
2023/07/06 05:00:57;;;;;;;15.93;5.90;;;;;;;;;;5090301;28;20043;-81
2023/07/06 05:03:23;;;;;;;13.85;5.32;;;;;;;;;;5090904;28;20062;-81
2023/07/06 05:05:50;;;;;;;13.60;5.65;;;;;;;;;;5091039;28;20063;-81
2023/07/06 05:08:17;;;;;;;16.23;5.10;;;;;;;;;;5074150;28;20040;-81
2023/07/06 05:10:46;;;;;;;11.68;5.38;;;;;;;;;;5090960;28;20062;-81
2023/07/06 05:13:12;;;;;;;11.75;4.95;;;;;;;;;;5090560;28;20413;-81
2023/07/06 05:15:39;;;;;;;9.00;4.88;;;;;;;;;;5091323;28;20489;-82
2023/07/06 05:18:06;;;;;;;11.20;4.90;;;;;;;;;;5073941;28;20119;-82
2023/07/06 05:20:32;;;;;;;9.68;5.03;;;;;;;;;;5091181;28;20131;-80
2023/07/06 05:22:58;;;;;;;10.25;5.35;;;;;;;;;;5074072;28;20040;-81
2023/07/06 05:25:26;;;;;;;10.23;4.60;;;;;;;;;;5073217;28;20032;-81
2023/07/06 05:27:52;;;;;;;10.45;4.80;;;;;;;;;;5074045;28;20104;-82
2023/07/06 05:30:19;;;;;;;9.82;5.22;;;;;;;;;;5090506;28;20044;-80
2023/07/06 05:32:45;;;;;;;13.35;4.65;;;;;;;;;;5091144;28;20373;-82
2023/07/06 05:35:13;;;;;;;11.38;4.38;;;;;;;;;;5076483;28;20373;-81
2023/07/06 05:37:41;;;;;;;9.88;4.05;;;;;;;;;;5092032;28;20044;-81
2023/07/06 05:40:08;;;;;;;9.77;4.40;;;;;;;;;;5090086;28;20485;-81
2023/07/06 05:42:34;;;;;;;11.40;4.50;;;;;;;;;;5090921;28;20434;-81
2023/07/06 05:45:00;;;;;;;10.27;4.10;;;;;;;;;;5090718;28;20043;-81
2023/07/06 05:47:29;;;;;;;10.50;4.30;;;;;;;;;;5090561;28;20431;-82
2023/07/06 05:49:55;;;;;;;11.23;4.20;;;;;;;;;;5090504;28;20044;-81
2023/07/06 05:52:22;;;;;;;11.25;4.40;;;;;;;;;;5090433;28;20404;-81
2023/07/06 05:54:48;;;;;;;15.52;4.30;;;;;;;;;;5090759;28;20044;-81
2023/07/06 05:57:16;;;;;;;13.90;4.85;;;;;;;;;;5089612;28;20039;-81
2023/07/06 05:59:43;;;;;;;14.30;4.10;;;;;;;;;;5090673;28;20036;-81
2023/07/06 06:02:12;;;;;;;13.65;4.22;;;;;;;;;;5091003;28;20119;-81
2023/07/06 06:04:39;;;;;;;14.80;4.10;;;;;;;;;;5073830;28;20044;-81
2023/07/06 06:07:06;;;;;;;12.95;4.20;;;;;;;;;;5089751;28;20028;-81
2023/07/06 06:09:33;;;;;;;8.68;3.95;;;;;;;;;;5088014;28;20061;-82
2023/07/06 06:11:59;;;;;;;11.80;4.30;;;;;;;;;;5090488;28;20123;-80
2023/07/06 06:14:25;;;;;;;11.38;4.20;;;;;;;;;;5073478;28;20409;-80
2023/07/06 06:16:51;;;;;;;12.65;4.30;;;;;;;;;;5091714;28;20173;-80
2023/07/06 06:19:17;;;;;;;13.38;4.22;;;;;;;;;;5072813;28;20043;-79
2023/07/06 06:21:43;;;;;;;10.98;3.97;;;;;;;;;;5057271;28;20493;-79
2023/07/06 06:24:10;;;;;;;11.40;3.80;;;;;;;;;;5089942;28;20043;-79
2023/07/06 06:26:36;;;;;;;11.48;4.10;;;;;;;;;;5093775;28;20481;-78
2023/07/06 06:29:03;;;;;;;9.73;4.40;;;;;;;;;;5093541;28;20044;-80
2023/07/06 06:31:30;;;;;;;10.95;3.80;;;;;;;;;;5093550;28;20048;-79
2023/07/06 06:33:56;;;;;;;13.93;4.07;;;;;;;;;;5094039;28;20047;-80
2023/07/06 06:36:22;;;;;;;13.50;3.83;;;;;;;;;;5093658;28;20135;-79
2023/07/06 06:38:48;;;;;;;14.48;4.00;;;;;;;;;;5094022;28;20040;-79
2023/07/06 06:41:15;;;;;;;12.55;4.07;;;;;;;;;;5093362;28;20040;-79
2023/07/06 06:43:44;;;;;;;12.55;4.78;;;;;;;;;;5093480;28;20119;-79
2023/07/06 06:46:11;;;;;;;12.60;4.10;;;;;;;;;;5093189;28;20082;-79
2023/07/06 06:48:37;;;;;;;15.40;4.10;;;;;;;;;;5093623;28;20059;-81
2023/07/06 06:51:04;;;;;;;10.82;4.07;;;;;;;;;;5094710;28;20051;-80
2023/07/06 06:53:30;;;;;;;8.93;3.63;;;;;;;;;;5092867;28;20358;-78
2023/07/06 06:55:57;;;;;;;9.65;3.78;;;;;;;;;;5093997;28;20515;-83
2023/07/06 06:58:24;;;;;;;12.43;3.78;;;;;;;;;;5094059;28;20107;-83
2023/07/06 07:00:59;;;;;;;10.98;4.00;;;;;;;;;;5093464;28;20040;-84
2023/07/06 07:03:28;;;;;;;8.70;3.55;;;;;;;;;;5076229;28;20610;-81
2023/07/06 07:06:01;;;;;;;10.00;3.70;;;;;;;;;;5092502;28;20039;-79
2023/07/06 07:08:28;;;;;;;9.23;3.72;;;;;;;;;;5075647;28;20425;-79
2023/07/06 07:10:54;;;;;;;10.23;3.67;;;;;;;;;;5091839;28;20465;-79
2023/07/06 07:13:21;;;;;;;11.45;4.15;;;;;;;;;;5092876;28;20032;-79
2023/07/06 07:15:47;;;;;;;11.02;3.80;;;;;;;;;;5093450;28;20040;-74
2023/07/06 07:18:15;;;;;;;10.00;3.50;;;;;;;;;;5092700;28;20213;-73
2023/07/06 07:20:43;;;;;;;10.45;3.97;;;;;;;;;;5092222;28;20111;-73
2023/07/06 07:23:10;;;;;;;12.43;3.80;;;;;;;;;;5072482;28;20047;-74
2023/07/06 07:25:40;;;;;;;11.25;3.50;;;;;;;;;;5092610;28;20040;-74
2023/07/06 07:28:06;;;;;;;10.02;3.22;;;;;;;;;;5092748;28;20076;-74
2023/07/06 07:30:33;;;;;;;10.90;3.50;;;;;;;;;;5093774;28;20051;-75
2023/07/06 07:32:59;;;;;;;8.13;3.40;;;;;;;;;;5092475;28;20047;-76
2023/07/06 07:35:26;;;;;;;8.93;3.30;;;;;;;;;;5075053;28;20118;-76
2023/07/06 07:37:52;;;;;;;9.20;3.10;;;;;;;;;;5075811;28;20044;-77
2023/07/06 07:40:19;;;;;;;11.95;3.60;;;;;;;;;;5071909;28;20043;-78
2023/07/06 07:42:49;;;;;;;8.10;3.03;;;;;;;;;;5075943;28;20507;-77
2023/07/06 07:45:15;;;;;;;8.10;2.83;;;;;;;;;;5093135;28;20068;-75
2023/07/06 07:47:41;;;;;;;8.18;2.60;;;;;;;;;;5058988;28;20395;-74
2023/07/06 07:50:08;;;;;;;9.40;2.95;;;;;;;;;;5075623;28;20510;-73
2023/07/06 07:52:34;;;;;;;7.25;2.95;;;;;;;;;;5058638;28;20043;-73
2023/07/06 07:55:00;;;;;;;8.85;2.92;;;;;;;;;;5059122;28;20059;-74
2023/07/06 07:57:30;;;;;;;7.22;2.55;;;;;;;;;;5091630;28;20047;-74
2023/07/06 07:59:56;;;;;;;7.63;3.03;;;;;;;;;;5092215;28;20044;-73
2023/07/06 08:02:23;;;;;;;6.28;2.65;;;;;;;;;;5091799;28;20044;-74
2023/07/06 08:04:49;;;;;;;8.50;2.30;;;;;;;;;;5091542;28;20048;-73
2023/07/06 08:07:15;;;;;;;7.30;2.75;;;;;;;;;;5093396;28;20051;-73
2023/07/06 08:09:42;;;;;;;6.75;2.90;;;;;;;;;;5091724;28;20542;-78
2023/07/06 08:12:08;;;;;;;10.50;3.13;;;;;;;;;;5092134;28;20374;-77
2023/07/06 08:14:38;;;;;;;7.18;2.80;;;;;;;;;;5066019;28;20051;-73
2023/07/06 08:17:05;;;;;;;5.70;2.70;;;;;;;;;;5074949;28;20040;-74
2023/07/06 08:19:32;;;;;;;5.65;2.50;;;;;;;;;;5089991;28;20115;-74
2023/07/06 08:21:59;;;;;;;7.03;2.40;;;;;;;;;;5091519;28;20489;-73
2023/07/06 08:24:25;;;;;;;7.57;1.90;;;;;;;;;;5090734;28;20032;-73
2023/07/06 08:26:51;;;;;;;5.72;2.28;;;;;;;;;;5091529;28;20044;-75
2023/07/06 08:29:17;;;;;;;5.70;2.08;;;;;;;;;;5093225;28;20039;-74
2023/07/06 08:31:45;;;;;;;9.52;2.42;;;;;;;;;;5092549;28;20059;-75
2023/07/06 08:34:12;;;;;;;5.90;1.90;;;;;;;;;;5074093;28;20092;-74
2023/07/06 08:36:39;;;;;;;11.07;2.22;;;;;;;;;;5092369;28;20043;-75
2023/07/06 08:39:05;;;;;;;7.43;1.98;;;;;;;;;;5064814;28;20050;-74
2023/07/06 08:41:37;;;;;;;6.70;1.67;;;;;;;;;;5088789;28;20095;-76
2023/07/06 08:44:04;;;;;;;7.10;2.03;;;;;;;;;;5073761;28;20040;-77
2023/07/06 08:46:36;;;;;;;4.95;2.05;;;;;;;;;;5074356;28;20040;-75
2023/07/06 08:49:02;;;;;;;6.32;1.90;;;;;;;;;;5090873;28;20039;-74
2023/07/06 08:51:34;;;;;;;5.50;1.60;;;;;;;;;;5092217;28;20476;-77
2023/07/06 08:54:19;;;;;;;4.88;1.60;;;;;;;;;;5091058;28;20040;-78
2023/07/06 08:56:47;;;;;;;3.80;1.40;;;;;;;;;;5073686;28;20074;-77
2023/07/06 08:59:17;;;;;;;5.10;1.55;;;;;;;;;;5090717;28;20484;-74
2023/07/06 09:01:43;;;;;;;4.20;1.60;;;;;;;;;;5091340;28;20543;-73
2023/07/06 09:04:15;;;;;;;6.45;1.63;;;;;;;;;;5090831;28;20044;-75
2023/07/06 09:06:47;;;;;;;4.00;1.50;;;;;;;;;;5090872;28;20040;-77
2023/07/06 09:09:13;;;;;;;4.93;1.35;;;;;;;;;;5091103;28;20055;-76
2023/07/06 09:11:42;;;;;;;3.70;1.60;;;;;;;;;;5090745;28;20036;-75
2023/07/06 09:14:16;;;;;;;3.33;1.30;;;;;;;;;;5090856;28;20043;-77
2023/07/06 09:16:51;;;;;;;3.95;1.48;;;;;;;;;;5091896;28;20044;-75
2023/07/06 09:19:17;;;;;;;4.28;1.40;;;;;;;;;;5090623;28;20512;-75
2023/07/06 09:21:47;;;;;;;2.88;1.40;;;;;;;;;;5090530;28;20047;-75
2023/07/06 09:24:14;;;;;;;5.90;1.50;;;;;;;;;;5092000;28;20040;-83
2023/07/06 09:26:43;;;;;;;4.10;1.45;;;;;;;;;;5090528;28;20054;-79
2023/07/06 09:29:12;;;;;;;3.95;1.40;;;;;;;;;;5091018;28;20048;-81
2023/07/06 09:31:38;;;;;;;4.65;1.42;;;;;;;;;;5073881;28;20489;-81
2023/07/06 09:34:10;;;;;;;4.88;1.50;;;;;;;;;;5090952;28;20048;-83
2023/07/06 09:36:36;;;;;;;3.15;1.52;;;;;;;;;;5090919;28;20392;-69
2023/07/06 09:39:08;;;;;;;5.10;1.42;;;;;;;;;;5090521;28;20036;-75
2023/07/06 09:41:37;;;;;;;4.97;1.50;;;;;;;;;;5091505;28;20050;-73
2023/07/06 09:44:03;;;;;;;4.50;1.77;;;;;;;;;;5092201;28;20078;-75
2023/07/06 09:46:34;;;;;;;3.65;1.50;;;;;;;;;;5091704;28;20036;-75
2023/07/06 09:49:00;;;;;;;3.65;1.40;;;;;;;;;;5092223;28;20378;-69
2023/07/06 09:51:36;;;;;;;5.88;1.65;;;;;;;;;;5092176;28;20040;-68
2023/07/06 09:54:11;;;;;;;4.57;1.63;;;;;;;;;;5091409;28;20047;-75
2023/07/06 09:56:38;;;;;;;4.60;1.38;;;;;;;;;;5091728;28;20059;-74
2023/07/06 09:59:04;;;;;;;5.78;1.75;;;;;;;;;;5091634;28;20051;-68
2023/07/06 10:01:41;;;;;;;4.90;2.13;;;;;;;;;;5094095;28;20113;-69
2023/07/06 10:04:16;;;;;;;3.80;1.67;;;;;;;;;;5095226;28;20044;-69
2023/07/06 10:06:44;;;;;;;;;;;;;;;;;;5093167;28;20040;-69
2023/07/06 10:09:21;;;;;;;5.30;1.55;;;;;;;;;;5076872;28;20380;-69
2023/07/06 10:11:51;;;;;;;4.68;1.50;;;;;;;;;;5093178;28;20137;-70
2023/07/06 10:14:25;;;;;;;3.80;1.70;;;;;;;;;;5094592;28;20065;-72
2023/07/06 10:16:52;;;;;;;3.63;1.50;;;;;;;;;;5094522;28;20107;-75
2023/07/06 10:19:18;;;;;;;3.50;1.20;;;;;;;;;;5095518;28;20507;-76
2023/07/06 10:21:56;;;;;;;4.65;1.35;;;;;;;;;;5087831;28;20555;-70
2023/07/06 10:24:32;;;;;;;3.42;1.70;;;;;;;;;;5090100;28;20036;-74
2023/07/06 10:27:01;;;;;;;4.45;1.50;;;;;;;;;;5094916;28;20108;-76
2023/07/06 10:29:34;;;;;;;3.65;1.35;;;;;;;;;;5094952;28;20036;-76
2023/07/06 10:32:04;;;;;;;3.50;1.30;;;;;;;;;;5075420;28;20047;-79
2023/07/06 10:34:32;;;;;;;4.15;1.45;;;;;;;;;;5095114;28;20043;-76
2023/07/06 10:37:00;;;;;;;3.53;1.30;;;;;;;;;;5093105;28;20119;-73
2023/07/06 10:39:26;;;;;;;5.78;1.23;;;;;;;;;;5095113;28;20075;-73
2023/07/06 10:42:00;;;;;;;5.80;1.50;;;;;;;;;;5093725;28;20040;-77
2023/07/06 10:44:43;;;;;;;3.67;1.30;;;;;;;;;;5093674;28;20067;-73
2023/07/06 10:47:28;;;;;;;6.22;1.30;;;;;;;;;;5091645;28;20107;-75
2023/07/06 10:50:14;;;;;;;6.20;1.40;;;;;;;;;;5093483;28;20406;-74
2023/07/06 10:52:44;;;;;;;4.47;1.60;;;;;;;;;;5084906;28;20630;-75
2023/07/06 10:55:11;;;;;;;3.60;1.50;;;;;;;;;;5094342;28;20039;-76
2023/07/06 10:57:43;;;;;;;4.88;1.55;;;;;;;;;;5094488;28;20039;-74
2023/07/06 11:00:19;;;;;;;11.18;1.63;;;;;;;;;;5093261;28;20044;-74
2023/07/06 11:02:46;;;;;;;5.30;1.50;;;;;;;;;;5093527;28;20060;-73
2023/07/06 11:05:24;;;;;;;4.78;1.50;;;;;;;;;;5093447;28;20101;-75
2023/07/06 11:07:52;;;;;;;3.92;1.50;;;;;;;;;;5092961;28;20036;-74
2023/07/06 11:10:21;;;;;;;4.60;1.90;;;;;;;;;;5084830;28;20082;-74
2023/07/06 11:12:58;;;;;;;5.57;1.58;;;;;;;;;;5089658;28;20039;-80
2023/07/06 11:15:39;;;;;;;3.30;1.50;;;;;;;;;;5093878;28;20032;-71
2023/07/06 11:18:17;;;;;;;4.13;1.58;;;;;;;;;;5093986;28;20388;-76
2023/07/06 11:20:47;;;;;;;5.63;1.70;;;;;;;;;;5094300;28;20044;-76
2023/07/06 11:23:17;;;;;;;5.68;1.92;;;;;;;;;;5088888;28;20046;-67
2023/07/06 11:25:47;;;;;;;5.18;1.90;;;;;;;;;;5093370;28;20439;-67
2023/07/06 11:28:14;;;;;;;6.13;1.63;;;;;;;;;;5093867;28;20032;-69
2023/07/06 11:30:56;;;;;;;2.85;1.42;;;;;;;;;;5094186;28;20044;-69
2023/07/06 11:33:29;;;;;;;4.55;1.60;;;;;;;;;;5093975;28;20028;-68
2023/07/06 11:36:09;;;;;;;8.65;1.80;;;;;;;;;;5093012;28;20040;-68
2023/07/06 11:38:55;;;;;;;7.50;1.80;;;;;;;;;;5089084;28;20113;-69
2023/07/06 11:41:21;;;;;;;;;;;;;;;;;;5094273;28;20040;-73
2023/07/06 11:44:14;;;;;;;3.97;1.63;;;;;;;;;;5075372;28;19916;-75
2023/07/06 11:46:42;;;;;;;4.88;1.70;;;;;;;;;;5093454;28;20103;-76
2023/07/06 11:49:15;;;;;;;4.93;1.70;;;;;;;;;;5092713;28;20051;-75
2023/07/06 11:51:42;;;;;;;4.53;1.52;;;;;;;;;;5093885;28;20370;-74
2023/07/06 11:54:29;;;;;;;4.15;1.40;;;;;;;;;;5092150;28;20056;-73
2023/07/06 11:57:24;;;;;;;4.93;1.67;;;;;;;;;;5092817;28;20048;-75
2023/07/06 12:00:09;;;;;;;4.87;1.70;;;;;;;;;;5088584;28;20536;-68
2023/07/06 12:02:36;;;;;;;7.25;1.73;;;;;;;;;;5092116;28;20282;-82
2023/07/06 12:05:02;;;;;;;7.50;1.85;;;;;;;;;;5093284;28;20055;-75
2023/07/06 12:07:30;;;;;;;4.70;1.65;;;;;;;;;;5093144;28;20111;-75
2023/07/06 12:10:01;;;;;;;5.75;1.80;;;;;;;;;;5093017;28;20128;-75
2023/07/06 12:12:28;;;;;;;4.30;1.98;;;;;;;;;;5093642;28;20476;-75
2023/07/06 12:14:55;;;;;;;6.95;1.58;;;;;;;;;;5092959;28;20040;-75
2023/07/06 12:17:22;;;;;;;5.40;1.80;;;;;;;;;;5092594;28;20052;-75
2023/07/06 12:19:48;;;;;;;4.43;1.65;;;;;;;;;;5093325;28;20126;-76
2023/07/06 12:22:15;;;;;;;5.40;1.90;;;;;;;;;;5092308;28;20040;-75
2023/07/06 12:24:42;;;;;;;6.22;2.00;;;;;;;;;;5090658;28;20532;-76
2023/07/06 12:27:16;;;;;;;4.78;1.67;;;;;;;;;;5091138;28;20039;-76
2023/07/06 12:29:45;;;;;;;4.80;1.75;;;;;;;;;;5091023;28;20078;-75
2023/07/06 12:32:21;;;;;;;7.85;1.85;;;;;;;;;;5092513;28;20075;-69
2023/07/06 12:34:50;;;;;;;4.53;1.67;;;;;;;;;;5092941;28;20040;-68
2023/07/06 12:37:16;;;;;;;4.38;1.60;;;;;;;;;;5090907;28;20048;-69
2023/07/06 12:39:44;;;;;;;4.20;1.38;;;;;;;;;;5091207;28;20051;-75
2023/07/06 12:42:11;;;;;;;3.70;1.30;;;;;;;;;;5090748;28;20485;-74
2023/07/06 12:44:39;;;;;;;5.35;1.83;;;;;;;;;;5092355;28;20036;-73
2023/07/06 12:47:24;;;;;;;6.45;1.73;;;;;;;;;;5071847;28;20130;-76
2023/07/06 12:49:52;;;;;;;5.10;2.08;;;;;;;;;;5090977;28;20052;-75
2023/07/06 12:52:22;;;;;;;4.40;1.80;;;;;;;;;;5090452;28;20055;-75
2023/07/06 12:54:52;;;;;;;3.90;2.00;;;;;;;;;;5087825;28;20040;-67
2023/07/06 12:57:26;;;;;;;4.20;1.90;;;;;;;;;;5088372;28;20093;-68
2023/07/06 12:59:56;;;;;;;5.13;1.92;;;;;;;;;;5083257;28;20508;-67
2023/07/06 13:02:23;;;;;;;9.45;2.00;;;;;;;;;;5083644;28;20047;-67
2023/07/06 13:04:49;;;;;;;4.28;1.90;;;;;;;;;;5091948;28;20044;-68
2023/07/06 13:07:17;;;;;;;4.80;2.17;;;;;;;;;;5091997;28;20146;-69
2023/07/06 13:09:43;;;;;;;6.53;2.50;;;;;;;;;;5090622;28;20059;-68
2023/07/06 13:12:17;;;;;;;5.40;2.10;;;;;;;;;;5090188;28;20097;-67
2023/07/06 13:14:45;;;;;;;7.03;2.45;;;;;;;;;;5090302;28;20039;-67
2023/07/06 13:17:16;;;;;;;5.53;2.03;;;;;;;;;;5077300;28;20098;-67
2023/07/06 13:19:42;;;;;;;6.00;2.10;;;;;;;;;;5089198;28;20043;-69
2023/07/06 13:22:10;;;;;;;5.10;1.98;;;;;;;;;;5092132;28;20028;-68
2023/07/06 13:24:39;;;;;;;7.05;2.17;;;;;;;;;;5090558;28;20032;-69
2023/07/06 13:27:06;;;;;;;4.63;1.80;;;;;;;;;;5090394;28;20437;-72
2023/07/06 13:29:34;;;;;;;6.82;2.03;;;;;;;;;;5091915;28;20417;-71
2023/07/06 13:32:01;;;;;;;5.53;2.42;;;;;;;;;;5092189;28;20048;-72
2023/07/06 13:34:27;;;;;;;6.43;2.35;;;;;;;;;;5094282;28;20520;-72
2023/07/06 13:36:54;;;;;;;5.22;2.30;;;;;;;;;;5095695;28;20036;-73
2023/07/06 13:39:20;;;;;;;5.88;2.15;;;;;;;;;;5094128;28;20047;-72
2023/07/06 13:41:46;;;;;;;5.63;1.80;;;;;;;;;;5096014;28;20439;-72
2023/07/06 13:44:13;;;;;;;5.18;1.70;;;;;;;;;;5094132;28;20040;-72
2023/07/06 13:46:40;;;;;;;5.70;1.90;;;;;;;;;;5096546;28;20067;-72
2023/07/06 13:49:06;;;;;;;4.97;1.58;;;;;;;;;;5095263;28;20096;-72
2023/07/06 13:51:32;;;;;;;4.53;1.65;;;;;;;;;;5096270;28;20123;-71
2023/07/06 13:53:59;;;;;;;4.35;2.00;;;;;;;;;;5094328;28;20070;-72
2023/07/06 13:56:27;;;;;;;4.47;1.67;;;;;;;;;;5094449;28;20074;-72
2023/07/06 13:58:54;;;;;;;4.78;2.00;;;;;;;;;;5093518;28;20044;-70
2023/07/06 14:01:23;;;;;;;4.50;1.60;;;;;;;;;;5082821;28;20167;-72
2023/07/06 14:03:52;;;;;;;5.75;1.70;;;;;;;;;;5094243;28;20059;-72
2023/07/06 14:06:18;;;;;;;4.57;1.40;;;;;;;;;;5081716;28;20051;-71
2023/07/06 14:08:44;;;;;;;4.15;2.13;;;;;;;;;;5095908;28;20032;-72
2023/07/06 14:11:10;;;;;;;6.40;1.73;;;;;;;;;;5094251;28;20043;-72
2023/07/06 14:13:37;;;;;;;3.20;1.30;;;;;;;;;;5095361;28;20036;-72
2023/07/06 14:16:04;;;;;;;5.10;1.45;;;;;;;;;;5092617;28;20456;-72
2023/07/06 14:18:31;;;;;;;5.03;1.50;;;;;;;;;;5093706;28;20104;-72
2023/07/06 14:20:59;;;;;;;5.15;1.67;;;;;;;;;;5094896;28;20115;-72
2023/07/06 14:23:26;;;;;;;3.45;1.33;;;;;;;;;;5093371;28;20036;-72
2023/07/06 14:25:52;;;;;;;4.10;1.70;;;;;;;;;;5092984;28;20480;-71
2023/07/06 14:28:19;;;;;;;6.32;1.50;;;;;;;;;;5086592;28;20043;-72
2023/07/06 14:30:48;;;;;;;9.57;1.60;;;;;;;;;;5093771;28;20488;-72
2023/07/06 14:33:15;;;;;;;3.42;1.35;;;;;;;;;;5095177;28;20484;-72
2023/07/06 14:35:42;;;;;;;3.80;1.60;;;;;;;;;;5094127;28;20063;-73
2023/07/06 14:38:08;;;;;;;3.72;1.27;;;;;;;;;;5094971;28;20397;-72
2023/07/06 14:40:37;;;;;;;4.35;1.50;;;;;;;;;;5087207;28;20044;-71
2023/07/06 14:43:04;;;;;;;6.40;1.42;;;;;;;;;;5091460;28;20028;-71
2023/07/06 14:45:30;;;;;;;3.83;1.35;;;;;;;;;;5084588;28;20040;-72